Time;durP1;ratioP1;P1;durP2;ratioP2;P2;SDS_P1;SDS_P2;PMS_P1;PMS_P2;Temp;Humidity;BMP_temperature;BMP_pressure;BME280_temperature;BME280_humidity;BME280_pressure;Samples;Min_cycle;Max_cycle;Signal;HPM_P1;HPM_P2
2024/03/05 00:02:39;;;;;;;44.90;26.00;;;;;;;-5.44;100.00;140958.03;107185;1265;22758;-62
2024/03/05 00:05:25;;;;;;;53.50;26.20;;;;;;;-5.48;100.00;140948.63;106832;1264;25533;-65
2024/03/05 00:08:11;;;;;;;44.50;25.60;;;;;;;-5.50;100.00;140943.41;107113;1265;25345;-65
2024/03/05 00:10:56;;;;;;;43.70;25.60;;;;;;;-5.49;100.00;140946.66;106891;1265;25487;-64
2024/03/05 00:13:43;;;;;;;44.20;24.10;;;;;;;-5.49;100.00;140943.94;107278;1268;23362;-65
2024/03/05 00:16:29;;;;;;;45.00;22.70;;;;;;;-5.54;100.00;140933.55;106918;1265;23274;-63
2024/03/05 00:19:16;;;;;;;41.90;24.70;;;;;;;-5.55;100.00;140930.33;106699;1271;25415;-65
2024/03/05 00:22:01;;;;;;;43.90;24.90;;;;;;;-5.56;100.00;140928.84;106740;1270;25360;-68
2024/03/05 00:24:47;;;;;;;43.40;23.20;;;;;;;-5.53;100.00;140934.78;106831;1270;25431;-66
2024/03/05 00:27:32;;;;;;;37.90;21.20;;;;;;;-5.54;100.00;140933.78;106863;1265;25345;-67
2024/03/05 00:30:18;;;;;;;44.20;23.90;;;;;;;-5.54;100.00;140932.55;106914;1270;25425;-67
2024/03/05 00:33:06;;;;;;;42.90;22.80;;;;;;;-5.57;100.00;140925.14;106857;1265;22552;-66
2024/03/05 00:35:52;;;;;;;39.90;23.90;;;;;;;-5.60;100.00;140918.20;107037;1259;25530;-65
2024/03/05 00:38:37;;;;;;;47.50;25.50;;;;;;;-5.61;100.00;140916.22;106863;1272;25373;-70
2024/03/05 00:41:23;;;;;;;54.80;25.00;;;;;;;-5.61;100.00;140914.48;106855;1256;23289;-68
2024/03/05 00:44:09;;;;;;;49.70;26.50;;;;;;;-5.60;100.00;140919.19;106888;1268;25345;-65
2024/03/05 00:46:55;;;;;;;47.70;25.90;;;;;;;-5.60;100.00;140916.95;106799;1260;25377;-65
2024/03/05 00:49:41;;;;;;;45.40;24.00;;;;;;;-5.68;100.00;140898.17;106934;1271;25348;-67
2024/03/05 00:52:27;;;;;;;45.90;24.10;;;;;;;-5.78;100.00;140874.20;106818;1279;25517;-66
2024/03/05 00:55:13;;;;;;;47.90;26.30;;;;;;;-5.84;100.00;140858.63;106891;1268;25337;-67
2024/03/05 00:57:58;;;;;;;50.00;28.00;;;;;;;-5.89;100.00;140849.45;106881;1259;25460;-66
2024/03/05 01:00:44;;;;;;;46.20;26.00;;;;;;;-5.90;100.00;140846.98;106875;1265;25415;-69
2024/03/05 01:03:29;;;;;;;48.80;27.60;;;;;;;-5.87;100.00;140853.66;106945;1257;25377;-65
2024/03/05 01:06:15;;;;;;;49.00;26.70;;;;;;;-5.82;100.00;140863.33;107011;1259;25378;-66
2024/03/05 01:09:01;;;;;;;44.80;27.70;;;;;;;-5.80;100.00;140869.25;106763;1260;25431;-65
2024/03/05 01:11:46;;;;;;;51.80;28.30;;;;;;;-5.81;100.00;140866.28;106567;1270;25429;-64
2024/03/05 01:14:32;;;;;;;47.50;27.70;;;;;;;-5.85;100.00;140858.38;106800;1268;25367;-70
2024/03/05 01:17:17;;;;;;;47.70;28.80;;;;;;;-5.82;100.00;140864.31;106868;1265;25348;-69
2024/03/05 01:20:04;;;;;;;50.20;30.20;;;;;;;-5.82;100.00;140865.30;106928;1268;22590;-69
2024/03/05 01:22:50;;;;;;;50.60;28.00;;;;;;;-5.81;100.00;140866.53;106727;1270;25473;-69
2024/03/05 01:25:39;;;;;;;59.10;31.20;;;;;;;-5.81;100.00;140865.80;106747;1271;25348;-67
2024/03/05 01:28:27;;;;;;;58.20;31.50;;;;;;;-5.81;100.00;140867.03;106737;1267;25362;-71
2024/03/05 01:31:13;;;;;;;55.00;30.00;;;;;;;-5.82;100.00;140865.05;106788;1266;25425;-69
2024/03/05 01:34:00;;;;;;;57.00;31.60;;;;;;;-5.82;100.00;140865.53;106643;1272;25366;-68
2024/03/05 01:36:46;;;;;;;55.50;31.60;;;;;;;-5.79;100.00;140870.73;106744;1270;25348;-66
2024/03/05 01:39:32;;;;;;;58.10;32.00;;;;;;;-5.79;100.00;140872.47;106763;1271;25348;-64
2024/03/05 01:42:18;;;;;;;51.10;30.20;;;;;;;-5.80;100.00;140870.48;106749;1272;25348;-66
2024/03/05 01:45:04;;;;;;;51.80;31.60;;;;;;;-5.80;100.00;140869.75;106773;1265;22653;-66
2024/03/05 01:47:50;;;;;;;45.10;27.00;;;;;;;-5.80;100.00;140868.75;106747;1271;25393;-65
2024/03/05 01:50:37;;;;;;;46.60;27.30;;;;;;;-5.82;100.00;140865.80;106678;1271;25383;-65
2024/03/05 01:53:24;;;;;;;51.40;28.90;;;;;;;-5.82;100.00;140864.05;106721;1270;25524;-65
2024/03/05 01:56:17;;;;;;;52.40;30.60;;;;;;;-5.85;100.00;140857.38;106687;1268;25466;-65
2024/03/05 01:59:03;;;;;;;49.50;29.50;;;;;;;-5.86;100.00;140853.92;106727;1269;23838;-65
2024/03/05 02:01:49;;;;;;;52.40;28.50;;;;;;;-5.86;100.00;140853.67;106682;1270;25413;-66
2024/03/05 02:04:37;;;;;;;50.60;28.20;;;;;;;-5.82;100.00;140864.08;106810;1269;25348;-66
2024/03/05 02:07:23;;;;;;;56.00;30.90;;;;;;;-5.78;100.00;140873.95;106854;1268;25373;-65
2024/03/05 02:10:09;;;;;;;49.50;28.60;;;;;;;-5.77;100.00;140876.66;106839;1269;25409;-69
2024/03/05 02:12:55;;;;;;;48.10;28.40;;;;;;;-5.77;100.00;140877.66;106791;1268;25421;-66
2024/03/05 02:15:41;;;;;;;47.30;28.80;;;;;;;-5.79;100.00;140871.23;106719;1271;25358;-66
2024/03/05 02:18:26;;;;;;;51.10;29.00;;;;;;;-5.79;100.00;140873.69;106817;1258;25429;-68
2024/03/05 02:21:20;;;;;;;53.30;27.90;;;;;;;-5.78;100.00;140873.22;106953;1256;25504;-65
2024/03/05 02:24:06;;;;;;;47.30;28.60;;;;;;;-5.76;100.00;140879.16;107006;1268;25370;-65
2024/03/05 02:26:52;;;;;;;50.30;29.30;;;;;;;-5.74;100.00;140883.83;106920;1259;22528;-67
2024/03/05 02:29:38;;;;;;;48.20;29.90;;;;;;;-5.74;100.00;140883.34;106912;1256;25482;-68
2024/03/05 02:32:26;;;;;;;55.90;31.40;;;;;;;-5.78;100.00;140874.70;106856;1268;25399;-69
2024/03/05 02:35:11;;;;;;;59.70;32.10;;;;;;;-5.80;100.00;140868.75;106842;1270;22536;-65
2024/03/05 02:37:57;;;;;;;48.00;29.30;;;;;;;-5.82;100.00;140864.55;106734;1271;25434;-66
2024/03/05 02:40:42;;;;;;;54.60;33.30;;;;;;;-5.83;100.00;140863.31;106777;1268;23294;-66
2024/03/05 02:43:28;;;;;;;53.10;31.30;;;;;;;-5.83;100.00;140862.08;106730;1261;25408;-67
2024/03/05 02:46:14;;;;;;;63.50;36.20;;;;;;;-5.86;100.00;140854.67;106739;1268;23217;-65
2024/03/05 02:48:59;;;;;;;64.40;36.30;;;;;;;-5.91;100.00;140844.53;106797;1265;22647;-69
2024/03/05 02:51:46;;;;;;;60.20;34.90;;;;;;;-5.97;100.00;140829.25;106852;1270;25354;-69
2024/03/05 02:54:33;;;;;;;60.10;33.30;;;;;;;-6.01;100.00;140819.88;106797;1270;22532;-67
2024/03/05 02:57:19;;;;;;;61.50;34.60;;;;;;;-6.04;100.00;140813.17;106833;1259;25377;-68
2024/03/05 03:00:10;;;;;;;60.90;34.90;;;;;;;-6.05;100.00;140809.72;106807;1271;25469;-66
2024/03/05 03:02:56;;;;;;;58.70;33.80;;;;;;;-6.06;100.00;140806.02;106699;1268;25359;-68
2024/03/05 03:05:41;;;;;;;59.60;33.60;;;;;;;-6.10;100.00;140797.61;106819;1271;25421;-68
2024/03/05 03:08:27;;;;;;;53.60;31.00;;;;;;;-6.15;100.00;140785.23;106959;1271;25378;-64
2024/03/05 03:11:16;;;;;;;54.50;31.20;;;;;;;-6.20;100.00;140773.88;106794;1260;25537;-67
2024/03/05 03:14:03;;;;;;;60.20;32.80;;;;;;;-6.22;100.00;140767.19;106892;1271;25343;-68
2024/03/05 03:16:49;;;;;;;54.60;32.90;;;;;;;-6.22;100.00;140767.19;106992;1270;23345;-65
2024/03/05 03:19:36;;;;;;;60.20;32.90;;;;;;;-6.25;100.00;140760.03;106766;1271;25355;-68
2024/03/05 03:22:22;;;;;;;54.80;31.30;;;;;;;-6.26;100.00;140759.78;106833;1271;25345;-68
2024/03/05 03:25:09;;;;;;;55.90;31.70;;;;;;;-6.23;100.00;140766.72;106889;1278;25447;-70
2024/03/05 03:27:54;;;;;;;54.40;31.60;;;;;;;-6.21;100.00;140771.66;106707;1271;24346;-66
2024/03/05 03:30:40;;;;;;;57.40;32.80;;;;;;;-6.21;100.00;140771.64;106690;1268;25390;-65
2024/03/05 03:33:26;;;;;;;54.60;31.30;;;;;;;-6.21;100.00;140771.91;106673;1271;25499;-68
2024/03/05 03:36:22;;;;;;;52.80;30.30;;;;;;;-6.21;100.00;140771.41;106732;1270;25363;-65
2024/03/05 03:39:11;;;;;;;52.60;30.10;;;;;;;-6.25;100.00;140761.78;106705;1265;25345;-68
2024/03/05 03:41:56;;;;;;;58.60;33.50;;;;;;;-6.24;100.00;140763.97;106745;1271;25335;-64
2024/03/05 03:44:42;;;;;;;56.90;31.20;;;;;;;-6.23;100.00;140764.72;106866;1271;25373;-66
2024/03/05 03:47:27;;;;;;;57.60;29.90;;;;;;;-6.25;100.00;140761.03;106783;1272;25396;-68
2024/03/05 03:50:14;;;;;;;58.50;31.10;;;;;;;-6.25;100.00;140762.00;106721;1266;23141;-66
2024/03/05 03:52:59;;;;;;;55.80;30.20;;;;;;;-6.25;100.00;140761.28;106849;1266;22540;-67
2024/03/05 03:55:45;;;;;;;56.80;31.90;;;;;;;-6.17;100.00;140780.55;106749;1266;25469;-68
2024/03/05 03:58:30;;;;;;;58.00;31.80;;;;;;;-6.08;100.00;140803.03;106811;1271;25446;-64
2024/03/05 04:01:18;;;;;;;54.30;30.30;;;;;;;-6.02;100.00;140816.14;106712;1268;25393;-64
2024/03/05 04:04:04;;;;;;;53.40;29.40;;;;;;;-5.98;100.00;140826.03;106759;1261;25428;-65
2024/03/05 04:06:50;;;;;;;50.20;29.00;;;;;;;-5.94;100.00;140838.11;106855;1269;22543;-66
2024/03/05 04:09:35;;;;;;;51.10;29.80;;;;;;;-5.93;100.00;140840.08;106827;1271;25337;-69
2024/03/05 04:12:21;;;;;;;49.50;29.90;;;;;;;-6.05;100.00;140808.50;106751;1262;25469;-64
2024/03/05 04:15:12;;;;;;;48.70;30.60;;;;;;;-6.12;100.00;140793.41;106804;1271;25401;-64
2024/03/05 04:17:57;;;;;;;49.10;27.80;;;;;;;-6.10;100.00;140798.09;106988;1268;25556;-66
2024/03/05 04:20:43;;;;;;;51.60;29.70;;;;;;;-6.16;100.00;140783.25;106838;1271;25345;-67
2024/03/05 04:23:28;;;;;;;57.30;32.90;;;;;;;-6.27;100.00;140756.08;106817;1278;25361;-67
2024/03/05 04:26:16;;;;;;;61.70;33.00;;;;;;;-6.38;100.00;140731.86;106763;1262;25396;-68
2024/03/05 04:29:02;;;;;;;84.20;39.60;;;;;;;-6.44;100.00;140714.55;106952;1268;25402;-68
2024/03/05 04:32:08;;;;;;;96.30;44.70;;;;;;;-6.51;100.00;140698.00;106853;1269;25397;-67
2024/03/05 04:35:06;;;;;;;95.50;45.30;;;;;;;-6.57;100.00;140684.41;106770;1271;25424;-68
2024/03/05 04:37:52;;;;;;;84.70;39.50;;;;;;;-6.57;100.00;140685.16;106808;1269;25325;-65
2024/03/05 04:40:38;;;;;;;85.10;41.60;;;;;;;-6.57;100.00;140683.67;106848;1273;22536;-67
2024/03/05 04:43:24;;;;;;;70.50;37.20;;;;;;;-6.51;100.00;140699.00;106811;1272;25482;-68
2024/03/05 04:46:11;;;;;;;64.40;34.10;;;;;;;-6.38;100.00;140730.38;106723;1271;25352;-67
2024/03/05 04:48:57;;;;;;;63.10;35.70;;;;;;;-6.34;100.00;140739.52;106664;1271;25370;-68
2024/03/05 04:51:43;;;;;;;65.00;32.90;;;;;;;-6.38;100.00;140729.88;106669;1271;25803;-67
2024/03/05 04:54:33;;;;;;;53.50;30.80;;;;;;;-6.31;100.00;140745.45;106687;1270;25879;-66
2024/03/05 04:57:19;;;;;;;65.60;33.10;;;;;;;-6.29;100.00;140750.89;106730;1271;25345;-66
2024/03/05 05:00:19;;;;;;;63.60;32.90;;;;;;;-6.27;100.00;140755.83;106781;1268;24216;-67
2024/03/05 05:03:06;;;;;;;64.20;31.90;;;;;;;-6.12;100.00;140791.44;106839;1272;25470;-64
2024/03/05 05:05:53;;;;;;;61.10;33.70;;;;;;;-6.01;100.00;140819.34;106876;1268;25421;-67
2024/03/05 05:08:41;;;;;;;71.80;34.50;;;;;;;-6.08;100.00;140802.30;106849;1268;25499;-69
2024/03/05 05:11:26;;;;;;;65.70;32.70;;;;;;;-6.17;100.00;140781.05;106723;1259;25376;-67
2024/03/05 05:14:13;;;;;;;54.40;29.30;;;;;;;-6.08;100.00;140803.28;106911;1268;23763;-66
2024/03/05 05:17:01;;;;;;;54.60;30.80;;;;;;;-5.97;100.00;140828.75;106928;1262;25367;-70
2024/03/05 05:19:46;;;;;;;65.40;32.90;;;;;;;-5.94;100.00;140836.41;106878;1267;22549;-69
2024/03/05 05:22:32;;;;;;;64.40;31.90;;;;;;;-6.01;100.00;140820.84;106915;1269;25373;-68
2024/03/05 05:25:21;;;;;;;58.60;30.80;;;;;;;-6.10;100.00;140797.59;106752;1271;25409;-67
2024/03/05 05:28:08;;;;;;;61.70;30.80;;;;;;;-6.10;100.00;140798.34;106854;1262;25344;-68
2024/03/05 05:30:54;;;;;;;58.00;31.30;;;;;;;-5.95;100.00;140833.17;106884;1268;22677;-64
2024/03/05 05:33:39;;;;;;;60.90;33.50;;;;;;;-5.79;100.00;140871.72;106849;1270;22529;-68
2024/03/05 05:36:24;;;;;;;59.60;33.50;;;;;;;-5.61;100.00;140915.48;106893;1271;22622;-67
2024/03/05 05:39:12;;;;;;;56.10;33.60;;;;;;;-5.38;100.00;140971.38;106847;1268;25425;-65
2024/03/05 05:41:57;;;;;;;58.10;34.20;;;;;;;-5.07;100.00;141046.33;106923;1262;25466;-67
2024/03/05 05:44:53;;;;;;;61.10;33.50;;;;;;;-4.68;100.00;141140.63;106839;1276;22553;-67
2024/03/05 05:47:42;;;;;;;71.30;33.60;;;;;;;-4.28;100.00;141237.91;106802;1266;22529;-66
2024/03/05 05:50:31;;;;;;;58.80;33.40;;;;;;;-3.72;100.00;141373.66;106744;1279;25407;-68
2024/03/05 05:53:18;;;;;;;58.90;33.70;;;;;;;-2.82;100.00;141592.00;106902;1272;25425;-67
2024/03/05 05:56:05;;;;;;;62.10;34.20;;;;;;;-1.46;100.00;141920.25;106946;1266;22536;-64
2024/03/05 05:58:51;;;;;;;52.70;30.60;;;;;;;-0.51;96.81;142152.22;106771;1271;24216;-66
2024/03/05 06:01:40;;;;;;;54.20;32.10;;;;;;;0.17;84.93;142315.25;106840;1271;25538;-67
2024/03/05 06:04:26;;;;;;;48.20;29.00;;;;;;;-0.14;82.70;142239.92;106763;1271;25351;-68
2024/03/05 06:07:12;;;;;;;52.90;31.40;;;;;;;-0.66;81.63;142113.95;106773;1268;25362;-66
2024/03/05 06:09:58;;;;;;;45.30;29.40;;;;;;;-0.92;84.04;142051.59;106712;1271;25379;-69
2024/03/05 06:12:47;;;;;;;51.70;29.40;;;;;;;-0.04;82.12;142266.05;106799;1271;23153;-68
2024/03/05 06:15:34;;;;;;;51.70;28.50;;;;;;;0.95;75.90;142505.05;106751;1268;25396;-67
2024/03/05 06:18:19;;;;;;;45.90;28.60;;;;;;;1.99;72.81;142758.20;106759;1262;25349;-69
2024/03/05 06:21:05;;;;;;;51.00;28.70;;;;;;;3.29;66.62;143074.66;106841;1272;25327;-69
2024/03/05 06:23:51;;;;;;;57.10;31.60;;;;;;;4.40;60.80;143345.03;106854;1269;25486;-65
2024/03/05 06:26:40;;;;;;;54.50;31.40;;;;;;;5.00;56.83;143492.80;106759;1272;25424;-67
2024/03/05 06:29:25;;;;;;;45.00;29.10;;;;;;;4.83;53.95;143450.63;106867;1272;25361;-68
2024/03/05 06:32:11;;;;;;;48.10;28.80;;;;;;;5.13;53.62;143523.77;106953;1271;25499;-67
2024/03/05 06:34:57;;;;;;;42.60;26.80;;;;;;;5.74;51.42;143672.64;106971;1261;25498;-69
2024/03/05 06:37:45;;;;;;;47.20;28.10;;;;;;;5.95;50.16;143723.13;106913;1261;25337;-67
2024/03/05 06:40:31;;;;;;;44.90;26.80;;;;;;;6.47;49.63;143850.41;106900;1271;25428;-69
2024/03/05 06:43:21;;;;;;;41.20;26.10;;;;;;;7.58;46.37;144122.53;107075;1270;25351;-68
2024/03/05 06:46:09;;;;;;;42.60;25.80;;;;;;;8.52;44.34;144353.34;107019;1268;25356;-68
2024/03/05 06:49:00;;;;;;;43.50;28.80;;;;;;;9.24;42.20;144527.72;106897;1269;22555;-67
2024/03/05 06:51:53;;;;;;;43.00;25.20;;;;;;;9.74;40.98;144650.53;106869;1259;25494;-68
2024/03/05 06:57:46;;;;;;;35.80;25.70;;;;;;;11.46;37.70;145072.02;106934;1261;25356;-71
2024/03/05 07:00:34;;;;;;;37.50;24.30;;;;;;;11.91;35.76;145184.28;106771;1262;25427;-68
2024/03/05 07:03:20;;;;;;;38.20;25.60;;;;;;;12.11;35.60;145232.50;106859;1261;25397;-68
2024/03/05 07:06:07;;;;;;;37.90;24.00;;;;;;;12.61;35.45;145354.59;106483;1262;25348;-71
2024/03/05 07:08:54;;;;;;;33.90;24.00;;;;;;;13.34;34.33;145533.81;106607;1271;25325;-68
2024/03/05 07:11:40;;;;;;;33.10;22.90;;;;;;;13.91;32.96;145673.64;106888;1264;25403;-67
2024/03/05 07:14:27;;;;;;;33.20;24.70;;;;;;;14.26;32.36;145759.41;106782;1275;25812;-68
2024/03/05 07:17:14;;;;;;;34.10;24.40;;;;;;;14.31;31.34;145772.98;106928;1262;25323;-69
2024/03/05 07:20:03;;;;;;;39.70;26.40;;;;;;;14.42;30.43;145798.42;107135;1257;25479;-68
2024/03/05 07:22:51;;;;;;;35.70;24.70;;;;;;;13.92;30.29;145675.14;106865;1262;25377;-72
2024/03/05 07:25:37;;;;;;;32.40;24.00;;;;;;;13.37;31.06;145540.88;106745;1262;25512;-69
2024/03/05 07:28:25;;;;;;;31.00;25.00;;;;;;;13.41;31.33;145549.92;106889;1263;25495;-70
2024/03/05 07:31:14;;;;;;;36.10;24.50;;;;;;;13.87;30.74;145664.33;106763;1272;25385;-68
2024/03/05 07:33:59;;;;;;;39.30;26.60;;;;;;;13.89;30.90;145669.34;106821;1262;22540;-69
2024/03/05 07:36:45;;;;;;;40.30;26.60;;;;;;;14.60;30.00;145841.97;106758;1269;25379;-70
2024/03/05 07:39:31;;;;;;;34.40;26.30;;;;;;;15.28;29.03;146009.64;106736;1259;25338;-67
2024/03/05 07:42:17;;;;;;;40.10;26.90;;;;;;;15.55;28.09;146077.84;106809;1263;25349;-69
2024/03/05 07:45:06;;;;;;;36.60;26.90;;;;;;;15.12;28.11;145970.86;106731;1262;25361;-70
2024/03/05 07:47:52;;;;;;;33.10;24.40;;;;;;;14.53;28.62;145825.59;106774;1271;25400;-68
2024/03/05 07:50:38;;;;;;;32.60;25.40;;;;;;;14.10;28.86;145719.66;106906;1262;25536;-67
2024/03/05 07:53:25;;;;;;;33.50;25.40;;;;;;;13.73;29.46;145628.84;106694;1262;25366;-72
2024/03/05 07:56:10;;;;;;;30.00;22.80;;;;;;;13.65;29.50;145609.73;106698;1274;25363;-71
2024/03/05 07:58:56;;;;;;;31.00;23.70;;;;;;;13.81;29.45;145650.00;106670;1274;25390;-73
2024/03/05 08:01:42;;;;;;;33.90;24.40;;;;;;;13.89;29.23;145669.86;106947;1262;25376;-71
2024/03/05 08:04:28;;;;;;;31.50;24.50;;;;;;;13.55;29.45;145585.86;106732;1271;25385;-75
2024/03/05 08:07:14;;;;;;;33.90;24.20;;;;;;;13.22;29.70;145505.66;107007;1273;23097;-70
2024/03/05 08:10:00;;;;;;;32.50;24.00;;;;;;;13.02;29.91;145454.84;107624;1264;22547;-74
2024/03/05 08:12:49;;;;;;;34.10;24.50;;;;;;;12.81;30.08;145403.33;107190;1263;23553;-70
2024/03/05 08:15:35;;;;;;;35.10;23.50;;;;;;;12.74;30.44;145387.75;107178;1262;25376;-73
2024/03/05 08:18:21;;;;;;;29.40;22.40;;;;;;;12.86;30.25;145415.14;107241;1272;24216;-69
2024/03/05 08:21:06;;;;;;;34.50;21.60;;;;;;;13.11;30.32;145476.22;106947;1263;22526;-69
2024/03/05 08:23:53;;;;;;;34.10;22.50;;;;;;;13.35;29.75;145535.59;107404;1265;25358;-66
2024/03/05 08:26:39;;;;;;;32.80;23.30;;;;;;;12.90;30.01;145426.97;106985;1264;25487;-69
2024/03/05 08:29:25;;;;;;;32.20;21.90;;;;;;;12.56;30.32;145342.28;106785;1265;24401;-72
2024/03/05 08:32:11;;;;;;;29.90;22.50;;;;;;;12.34;30.47;145288.77;106851;1262;25348;-71
2024/03/05 08:34:57;;;;;;;39.80;22.40;;;;;;;11.93;31.21;145187.80;106895;1266;25376;-70
2024/03/05 08:37:47;;;;;;;29.00;20.30;;;;;;;11.73;31.52;145139.78;107271;1262;25341;-69
2024/03/05 08:40:35;;;;;;;36.30;23.00;;;;;;;11.08;32.01;144979.16;107026;1267;26602;-69
2024/03/05 08:43:21;;;;;;;31.90;22.90;;;;;;;9.87;33.76;144683.13;107537;1269;24279;-71
2024/03/05 08:46:08;;;;;;;31.00;23.20;;;;;;;9.99;33.90;144711.94;107480;1264;25456;-69
2024/03/05 08:48:54;;;;;;;26.30;18.30;;;;;;;9.64;34.09;144627.47;107363;1271;25598;-68
2024/03/05 08:51:40;;;;;;;29.80;20.50;;;;;;;7.49;37.01;144101.02;107008;1270;25338;-72
2024/03/05 08:54:30;;;;;;;29.00;20.40;;;;;;;6.59;38.83;143879.88;107474;1263;22546;-70
2024/03/05 08:57:16;;;;;;;32.30;20.90;;;;;;;6.49;39.24;143856.13;107090;1269;25562;-70
2024/03/05 09:00:04;;;;;;;32.20;20.30;;;;;;;6.34;39.73;143818.13;106983;1271;25341;-72
2024/03/05 09:03:13;;;;;;;30.90;19.10;;;;;;;5.93;40.48;143719.38;107067;1276;25428;-71
2024/03/05 09:05:59;;;;;;;29.90;21.50;;;;;;;5.39;41.52;143587.20;107418;1277;25477;-67
2024/03/05 09:08:45;;;;;;;31.30;20.00;;;;;;;4.96;42.28;143481.08;107758;1262;23354;-66
2024/03/05 09:11:31;;;;;;;30.80;20.90;;;;;;;4.67;43.18;143411.91;107487;1262;22963;-72
2024/03/05 09:14:17;;;;;;;34.60;19.40;;;;;;;4.31;44.06;143322.81;107194;1262;22542;-70
2024/03/05 09:17:05;;;;;;;34.00;21.20;;;;;;;3.97;44.78;143241.72;106950;1269;25386;-74
2024/03/05 09:19:51;;;;;;;39.10;21.80;;;;;;;3.57;45.60;143142.97;107175;1269;24358;-70
2024/03/05 09:22:37;;;;;;;32.70;21.50;;;;;;;2.79;47.70;142953.50;107087;1262;26502;-69
2024/03/05 09:25:23;;;;;;;37.60;23.20;;;;;;;2.38;49.32;142853.58;107076;1276;25397;-73
2024/03/05 09:28:09;;;;;;;37.40;22.70;;;;;;;1.93;50.69;142744.48;107443;1262;25419;-70
2024/03/05 09:30:56;;;;;;;35.40;23.00;;;;;;;1.42;52.47;142619.27;106859;1269;23878;-70
2024/03/05 09:33:42;;;;;;;39.80;23.70;;;;;;;1.44;53.00;142626.22;107029;1271;25469;-69
2024/03/05 09:36:28;;;;;;;40.20;24.00;;;;;;;1.60;53.09;142662.58;107077;1269;27549;-69
2024/03/05 09:39:15;;;;;;;36.10;22.30;;;;;;;1.61;52.90;142666.56;106928;1268;200592;-67
2024/03/05 09:42:01;;;;;;;34.00;23.10;;;;;;;1.60;53.24;142664.06;107282;1267;23300;-67
2024/03/05 09:44:50;;;;;;;41.50;23.20;;;;;;;1.41;53.96;142618.75;107129;1264;25532;-70
2024/03/05 09:47:37;;;;;;;39.80;22.70;;;;;;;1.30;54.18;142590.63;107307;1268;23032;-70
2024/03/05 09:50:25;;;;;;;43.50;23.40;;;;;;;1.24;54.88;142576.95;107350;1273;25353;-73
2024/03/05 09:53:14;;;;;;;41.20;23.60;;;;;;;0.96;55.74;142507.77;107114;1270;25425;-65
2024/03/05 09:56:01;;;;;;;34.20;21.00;;;;;;;0.86;56.61;142483.39;107123;1274;23284;-67
2024/03/05 09:58:47;;;;;;;31.90;21.60;;;;;;;0.70;57.02;142445.83;107162;1271;25403;-71
2024/03/05 10:01:35;;;;;;;39.60;23.00;;;;;;;0.62;57.68;142425.69;107236;1266;22566;-73
2024/03/05 10:04:26;;;;;;;36.50;22.20;;;;;;;0.61;58.29;142422.94;107603;1262;25300;-70
2024/03/05 10:07:26;;;;;;;35.80;22.60;;;;;;;0.59;58.15;142417.72;107202;1266;25485;-72
2024/03/05 10:10:12;;;;;;;51.90;24.90;;;;;;;0.64;58.32;142430.16;107117;1266;25717;-72
2024/03/05 10:13:01;;;;;;;41.40;24.50;;;;;;;0.42;59.35;142378.67;106958;1276;25376;-68
2024/03/05 10:15:48;;;;;;;47.20;25.90;;;;;;;0.24;60.27;142334.17;107114;1273;25377;-68
2024/03/05 10:18:34;;;;;;;50.70;25.10;;;;;;;0.17;60.45;142316.02;107244;1257;23860;-66
2024/03/05 10:21:22;;;;;;;40.20;23.10;;;;;;;0.35;60.50;142359.02;107777;1276;23345;-72
2024/03/05 10:24:10;;;;;;;37.40;22.30;;;;;;;0.50;60.31;142397.08;106970;1274;25362;-69
2024/03/05 10:26:57;;;;;;;34.20;22.30;;;;;;;0.50;59.98;142397.31;107286;1264;25415;-71
2024/03/05 10:29:43;;;;;;;35.50;21.90;;;;;;;0.60;59.93;142419.70;106823;1263;25456;-67
2024/03/05 10:32:30;;;;;;;37.70;23.10;;;;;;;0.84;59.19;142479.91;107267;1263;25453;-71
2024/03/05 10:35:16;;;;;;;35.30;21.20;;;;;;;1.19;58.40;142564.27;106913;1270;23261;-69
2024/03/05 10:38:05;;;;;;;39.50;23.20;;;;;;;1.49;56.79;142636.91;107458;1264;22529;-69
2024/03/05 10:40:55;;;;;;;33.30;21.20;;;;;;;1.43;56.53;142623.72;106961;1272;25392;-69
2024/03/05 10:43:52;;;;;;;37.00;22.20;;;;;;;1.74;55.87;142697.91;106983;1266;25353;-69
2024/03/05 10:46:38;;;;;;;40.50;21.60;;;;;;;2.10;54.82;142786.33;107263;1260;25338;-75
2024/03/05 10:49:25;;;;;;;40.00;22.00;;;;;;;2.41;54.05;142861.28;107149;1263;25904;-68
2024/03/05 10:52:13;;;;;;;38.80;24.00;;;;;;;2.58;52.64;142903.17;106927;1273;22538;-74
2024/03/05 10:55:00;;;;;;;38.00;22.30;;;;;;;2.32;53.05;142839.63;106790;1264;25454;-66
2024/03/05 11:00:57;;;;;;;40.30;21.40;;;;;;;2.19;53.54;142808.25;107043;1264;25369;-65
2024/03/05 11:03:44;;;;;;;33.10;21.30;;;;;;;2.34;53.42;142843.38;107129;1272;25310;-69
2024/03/05 11:06:30;;;;;;;35.90;21.60;;;;;;;2.41;53.29;142861.05;106958;1256;22555;-72
2024/03/05 11:09:19;;;;;;;34.40;20.50;;;;;;;2.66;52.80;142922.59;106821;1273;24291;-70
2024/03/05 11:12:19;;;;;;;30.60;19.40;;;;;;;2.71;52.51;142933.80;107114;1273;23301;-72
2024/03/05 11:15:05;;;;;;;33.40;20.10;;;;;;;2.44;52.74;142866.53;106977;1264;25470;-70
2024/03/05 11:17:57;;;;;;;35.20;20.20;;;;;;;2.45;52.93;142870.75;106934;1267;22564;-69
2024/03/05 11:20:47;;;;;;;36.50;20.60;;;;;;;2.44;52.82;142868.78;106925;1261;22532;-73
2024/03/05 11:23:38;;;;;;;29.50;18.70;;;;;;;2.50;52.94;142882.22;107333;1272;26280;-67
2024/03/05 11:26:26;;;;;;;35.30;18.60;;;;;;;2.60;52.70;142907.66;106938;1258;25536;-66
2024/03/05 11:29:20;;;;;;;32.50;18.60;;;;;;;2.74;52.44;142942.28;106773;1269;26751;-69
2024/03/05 11:32:10;;;;;;;32.00;18.40;;;;;;;2.75;51.78;142943.53;107003;1264;25466;-73
2024/03/05 11:34:56;;;;;;;28.20;17.20;;;;;;;2.46;51.98;142873.03;107106;1263;23207;-72
2024/03/05 11:37:53;;;;;;;30.20;17.90;;;;;;;2.59;52.22;142905.41;107078;1264;25338;-69
2024/03/05 11:40:42;;;;;;;27.60;17.70;;;;;;;2.74;51.85;142940.30;107298;1273;25555;-66
2024/03/05 11:43:35;;;;;;;35.80;21.30;;;;;;;2.89;51.61;142977.67;107405;1270;25441;-67
2024/03/05 11:46:39;;;;;;;31.80;19.60;;;;;;;2.82;51.74;142960.23;107152;1273;25494;-69
2024/03/05 11:49:25;;;;;;;36.10;21.30;;;;;;;2.89;51.94;142978.17;107256;1269;23332;-74
2024/03/05 11:52:13;;;;;;;36.90;21.40;;;;;;;3.03;51.41;143010.81;107068;1279;25329;-72
2024/03/05 11:55:05;;;;;;;30.70;18.40;;;;;;;2.92;51.31;142985.66;107273;1277;25339;-71
2024/03/05 11:57:57;;;;;;;28.90;18.70;;;;;;;2.88;51.40;142974.44;107307;1272;24262;-69
2024/03/05 12:00:45;;;;;;;30.90;18.20;;;;;;;3.05;50.42;143015.55;107068;1273;23171;-66
2024/03/05 12:03:30;;;;;;;30.20;18.30;;;;;;;2.84;50.18;142966.97;107455;1260;22538;-68
2024/03/05 12:06:17;;;;;;;31.00;19.70;;;;;;;2.61;51.16;142910.41;107517;1264;24233;-69
2024/03/05 12:09:18;;;;;;;32.80;18.90;;;;;;;2.76;51.26;142946.78;106791;1264;25418;-72
2024/03/05 12:12:09;;;;;;;33.30;18.70;;;;;;;3.09;50.97;143027.28;107312;1270;25362;-70
2024/03/05 12:14:55;;;;;;;32.60;19.20;;;;;;;2.94;50.69;142989.66;106920;1263;24220;-71
2024/03/05 12:17:42;;;;;;;34.80;19.00;;;;;;;2.50;51.32;142882.22;107104;1257;23295;-69
2024/03/05 12:20:29;;;;;;;28.20;18.80;;;;;;;2.47;51.72;142874.50;107569;1258;25488;-68
2024/03/05 12:23:17;;;;;;;31.10;20.40;;;;;;;2.52;51.85;142886.70;107273;1260;23422;-68
2024/03/05 12:26:22;;;;;;;32.70;17.90;;;;;;;2.58;52.10;142902.91;107247;1272;22573;-67
2024/03/05 12:29:08;;;;;;;33.50;18.10;;;;;;;2.68;51.63;142927.34;107334;1260;25552;-69
2024/03/05 12:31:56;;;;;;;36.50;20.10;;;;;;;2.69;52.13;142930.06;106920;1265;23423;-71
2024/03/05 12:34:42;;;;;;;30.70;20.80;;;;;;;2.65;52.80;142919.59;107240;1264;23279;-69
2024/03/05 12:37:29;;;;;;;34.00;20.60;;;;;;;2.52;53.41;142887.47;106721;1260;25474;-66
2024/03/05 12:40:17;;;;;;;34.80;20.30;;;;;;;2.49;53.70;142880.48;107583;1271;22529;-70